KALX/ALX METAR and TAF weather

Enter ICAO airport designator
Station Type Date Time Source
KALX METAR 2019/08/19 07:55 UTC NOAA

KALX 190755Z AUTO 00000KT 10SM CLR 26/24 A3001 RMK AO2 T02570238


Station Type Date Time Source
KALX Decoded METAR 2019/08/19 07:55 UTC NOAA

Station name not available
Aug 19, 2019 - 03:55 AM EDT / 2019.08.19 0755 UTC
Wind: Calm:0
Visibility: 10 mile(s):0
Sky conditions: clear
Temperature: 78.3 F (25.7 C)
Dew Point: 74.8 F (23.8 C)
Relative Humidity: 89%
Pressure (altimeter): 30.01 in. Hg (1016 hPa)
ob: KALX 190755Z AUTO 00000KT 10SM CLR 26/24 A3001 RMK AO2 T02570238
cycle: 8

Station Type Date Time Source
KALX TAF UTC NOAA

Error!

Example: see airport list